createdAt,value
2022-07-26T00:01:22.812Z,97380.44
2022-07-26T00:03:52.677Z,97385.47
2022-07-26T00:06:20.990Z,97371.34
2022-07-26T00:08:50.963Z,97363.00
2022-07-26T00:11:20.108Z,97373.53
2022-07-26T00:13:49.210Z,97385.88
2022-07-26T00:16:17.954Z,97391.00
2022-07-26T00:18:47.518Z,97376.78
2022-07-26T00:21:15.962Z,97397.94
2022-07-26T00:23:44.382Z,97408.91
2022-07-26T00:26:14.293Z,97402.22
2022-07-26T00:28:42.666Z,97412.09
2022-07-26T00:31:12.801Z,97416.81
2022-07-26T00:33:41.287Z,97429.66
2022-07-26T00:36:10.068Z,97412.72
2022-07-26T00:38:38.652Z,97414.97
2022-07-26T00:41:07.641Z,97413.44
2022-07-26T00:43:37.443Z,97419.22
2022-07-26T00:46:06.225Z,97404.41
2022-07-26T00:48:34.614Z,97410.81
2022-07-26T00:51:02.969Z,97408.47
2022-07-26T00:53:31.377Z,97396.59
2022-07-26T00:55:59.903Z,97392.38
2022-07-26T00:58:28.258Z,97395.44
2022-07-26T01:00:58.016Z,97403.56
2022-07-26T01:03:29.199Z,97410.13
2022-07-26T01:06:04.987Z,97393.06
2022-07-26T01:08:33.461Z,97399.09
2022-07-26T01:11:01.837Z,97395.31
2022-07-26T01:13:34.767Z,97388.59
2022-07-26T01:16:05.380Z,97398.38
2022-07-26T01:18:33.685Z,97392.75
2022-07-26T01:21:09.613Z,97403.56
2022-07-26T01:23:44.260Z,97397.31
2022-07-26T01:26:12.789Z,97400.03
2022-07-26T01:28:44.829Z,97388.38
2022-07-26T01:31:13.247Z,97395.44
2022-07-26T01:33:41.679Z,97378.63
2022-07-26T01:36:12.445Z,97385.66
2022-07-26T01:38:41.211Z,97382.97
2022-07-26T01:41:11.367Z,97392.97
2022-07-26T01:43:40.200Z,97394.00
2022-07-26T01:46:11.444Z,97395.91
2022-07-26T01:48:41.727Z,97386.97
2022-07-26T01:51:10.003Z,97386.97
2022-07-26T01:53:38.338Z,97383.44
2022-07-26T01:56:07.462Z,97385.19
2022-07-26T01:58:37.230Z,97386.25
2022-07-26T02:01:05.550Z,97377.78
2022-07-26T02:03:33.899Z,97380.72
2022-07-26T02:06:02.529Z,97386.34
2022-07-26T02:08:30.867Z,97382.84
2022-07-26T02:11:03.494Z,97368.97
2022-07-26T02:13:34.832Z,97373.53
2022-07-26T02:16:07.653Z,97368.13
2022-07-26T02:18:37.662Z,97373.53
2022-07-26T02:21:06.886Z,97365.41
2022-07-26T02:23:36.243Z,97372.72
2022-07-26T02:26:10.127Z,97365.88
2022-07-26T02:28:38.430Z,97373.78
2022-07-26T02:31:08.134Z,97374.00
2022-07-26T02:33:36.445Z,97366.09
2022-07-26T02:36:05.222Z,97368.00
2022-07-26T02:38:33.531Z,97364.44
2022-07-26T02:41:01.846Z,97357.66
2022-07-26T02:43:30.623Z,97358.44
2022-07-26T02:46:02.194Z,97351.41
2022-07-26T02:48:32.955Z,97354.34
2022-07-26T02:51:01.630Z,97356.44
2022-07-26T02:53:29.930Z,97354.56
2022-07-26T02:55:58.279Z,97350.00
2022-07-26T02:58:27.041Z,97350.00
2022-07-26T03:00:55.464Z,97347.28
2022-07-26T03:03:23.750Z,97340.22
2022-07-26T03:05:53.478Z,97351.25
2022-07-26T03:08:22.660Z,97344.44
2022-07-26T03:10:51.093Z,97349.84
2022-07-26T03:13:19.426Z,97341.16
2022-07-26T03:15:48.083Z,97334.94
2022-07-26T03:18:16.520Z,97341.63
2022-07-26T03:20:44.865Z,97346.69
2022-07-26T03:23:14.627Z,97355.03
2022-07-26T03:25:43.115Z,97359.81
2022-07-26T03:28:14.752Z,97349.25
2022-07-26T03:30:45.901Z,97353.81
2022-07-26T03:33:14.327Z,97352.19
2022-07-26T03:35:42.655Z,97355.13
2022-07-26T03:38:14.410Z,97349.72
2022-07-26T03:40:42.848Z,97358.03
2022-07-26T03:43:11.177Z,97353.47
2022-07-26T03:45:39.457Z,97352.63
2022-07-26T03:48:08.334Z,97353.94
2022-07-26T03:50:36.650Z,97360.75
2022-07-26T03:53:06.066Z,97359.13
2022-07-26T03:55:53.237Z,97369.09
2022-07-26T03:58:21.548Z,97368.28
2022-07-26T04:00:49.933Z,97363.34
2022-07-26T04:03:18.290Z,97361.91
2022-07-26T04:05:48.875Z,97365.44
2022-07-26T04:08:17.656Z,97366.28
2022-07-26T04:10:48.317Z,97361.09
2022-07-26T04:13:16.635Z,97355.69
2022-07-26T04:15:44.961Z,97362.97
2022-07-26T04:18:14.684Z,97354.84
2022-07-26T04:20:43.731Z,97353.22
2022-07-26T04:23:12.474Z,97342.66
2022-07-26T04:25:41.796Z,97344.28
2022-07-26T04:28:12.822Z,97348.28
2022-07-26T04:30:41.555Z,97354.47
2022-07-26T04:33:10.301Z,97353.69
2022-07-26T04:35:38.602Z,97353.69
2022-07-26T04:38:06.913Z,97363.66
2022-07-26T04:40:40.765Z,97362.81
2022-07-26T04:43:16.082Z,97365.53
2022-07-26T04:45:45.340Z,97358.47
2022-07-26T04:48:14.288Z,97363.66
2022-07-26T04:50:44.922Z,97363.88
2022-07-26T04:53:13.243Z,97362.03
2022-07-26T04:55:41.700Z,97369.06
2022-07-26T04:58:11.843Z,97364.13
2022-07-26T05:01:08.518Z,97365.75
2022-07-26T05:03:28.705Z,97367.66
2022-07-26T05:05:57.059Z,97374.69
2022-07-26T05:08:25.361Z,97369.28
2022-07-26T05:10:55.873Z,97369.53
2022-07-26T05:13:30.144Z,97362.03
2022-07-26T05:15:59.855Z,97370.13
2022-07-26T05:18:31.435Z,97373.41
2022-07-26T05:21:00.400Z,97370.69
2022-07-26T05:23:28.711Z,97375.06
2022-07-26T05:25:57.039Z,97374.00
2022-07-26T05:28:26.831Z,97369.44
2022-07-26T05:30:55.274Z,97376.47
2022-07-26T05:33:23.615Z,97381.88
2022-07-26T05:35:51.924Z,97374.38
2022-07-26T05:38:20.733Z,97381.44
2022-07-26T05:40:50.944Z,97377.19
2022-07-26T05:43:19.505Z,97372.63
2022-07-26T05:45:49.263Z,97375.09
2022-07-26T05:48:17.582Z,97380.84
2022-07-26T05:50:46.117Z,97373.81
2022-07-26T05:53:14.431Z,97374.19
2022-07-26T05:55:43.047Z,97378.28
2022-07-26T05:58:11.359Z,97374.50
2022-07-26T06:00:41.032Z,97375.94
2022-07-26T06:03:23.146Z,97382.75
2022-07-26T06:05:53.563Z,97383.59
2022-07-26T06:08:22.930Z,97376.28
2022-07-26T06:10:52.102Z,97385.00
2022-07-26T06:13:20.794Z,97382.31
2022-07-26T06:15:49.741Z,97384.53
2022-07-26T06:18:19.730Z,97384.53
2022-07-26T06:20:49.602Z,97383.25
2022-07-26T06:23:17.974Z,97392.19
2022-07-26T06:26:02.182Z,97390.31
2022-07-26T06:28:30.480Z,97390.31
2022-07-26T06:30:58.812Z,97393.81
2022-07-26T06:33:28.451Z,97393.81
2022-07-26T06:35:56.793Z,97393.81
2022-07-26T06:38:25.109Z,97388.41
2022-07-26T06:40:53.546Z,97395.50
2022-07-26T06:43:22.177Z,97395.25
2022-07-26T06:45:50.666Z,97398.53
2022-07-26T06:48:19.190Z,97402.94
2022-07-26T06:50:48.910Z,97398.72
2022-07-26T06:53:17.195Z,97402.25
2022-07-26T06:55:45.858Z,97403.41
2022-07-26T06:58:14.338Z,97411.06
2022-07-26T07:00:42.949Z,97409.53
2022-07-26T07:03:11.300Z,97418.81
2022-07-26T07:05:39.575Z,97414.00
2022-07-26T07:08:09.652Z,97409.22
2022-07-26T07:10:39.795Z,97407.06
2022-07-26T07:13:09.534Z,97406.59
2022-07-26T07:15:37.870Z,97394.75
2022-07-26T07:18:06.316Z,97397.22
2022-07-26T07:20:34.723Z,97409.44
2022-07-26T07:23:03.040Z,97404.25
2022-07-26T07:25:32.850Z,97404.88
2022-07-26T07:28:02.127Z,97410.03
2022-07-26T07:30:30.485Z,97397.31
2022-07-26T07:32:58.796Z,97406.03
2022-07-26T07:35:35.074Z,97406.88
2022-07-26T07:38:04.390Z,97412.63
2022-07-26T07:40:34.143Z,97408.88
2022-07-26T07:43:02.827Z,97411.09
2022-07-26T07:45:31.305Z,97408.16
2022-07-26T07:47:59.623Z,97411.44
2022-07-26T07:50:28.454Z,97421.00
2022-07-26T07:52:59.254Z,97421.47
2022-07-26T07:55:46.123Z,97413.91
2022-07-26T07:58:17.379Z,97417.44
2022-07-26T08:00:48.488Z,97414.50
2022-07-26T08:03:18.768Z,97416.16
2022-07-26T08:05:49.619Z,97417.59
2022-07-26T08:08:22.141Z,97418.16
2022-07-26T08:10:52.811Z,97413.56
2022-07-26T08:13:24.643Z,97415.81
2022-07-26T08:15:54.464Z,97421.59
2022-07-26T08:18:25.260Z,97419.00
2022-07-26T08:20:55.043Z,97429.13
2022-07-26T08:23:23.795Z,97428.41
2022-07-26T08:25:58.024Z,97431.47
2022-07-26T08:28:47.762Z,97437.22
2022-07-26T08:31:17.345Z,97441.13
2022-07-26T08:33:46.642Z,97437.94
2022-07-26T08:36:15.961Z,97439.94
2022-07-26T08:38:44.728Z,97443.56
2022-07-26T08:41:16.801Z,97435.44
2022-07-26T08:43:52.928Z,97426.84
2022-07-26T08:46:25.828Z,97429.09
2022-07-26T08:48:55.488Z,97425.91
2022-07-26T08:51:25.822Z,97427.28
2022-07-26T08:54:04.659Z,97431.41
2022-07-26T08:56:35.837Z,97435.28
2022-07-26T08:59:07.743Z,97437.31
2022-07-26T09:01:36.394Z,97435.16
2022-07-26T09:04:31.537Z,97444.25
2022-07-26T09:07:05.465Z,97442.09
2022-07-26T09:09:35.242Z,97446.56
2022-07-26T09:12:18.204Z,97442.34
2022-07-26T09:14:49.109Z,97439.47
2022-07-26T09:17:19.443Z,97445.00
2022-07-26T09:19:48.746Z,97458.38
2022-07-26T09:22:17.775Z,97450.72
2022-07-26T09:24:48.221Z,97460.91
2022-07-26T09:27:19.196Z,97463.28
2022-07-26T09:29:51.228Z,97466.91
2022-07-26T09:32:22.330Z,97461.34
2022-07-26T09:34:58.183Z,97467.91
2022-07-26T09:37:37.356Z,97468.50
2022-07-26T09:40:09.133Z,97461.75
2022-07-26T09:42:37.654Z,97461.25
2022-07-26T09:45:17.524Z,97461.59
2022-07-26T09:47:45.854Z,97458.47
2022-07-26T09:50:16.959Z,97468.69
2022-07-26T09:53:10.261Z,97455.63
2022-07-26T09:55:56.668Z,97460.81
2022-07-26T09:58:26.170Z,97469.50
2022-07-26T10:01:02.015Z,97466.44
2022-07-26T10:03:31.869Z,97463.66
2022-07-26T10:06:00.643Z,97461.06
2022-07-26T10:08:29.452Z,97461.00
2022-07-26T10:11:05.930Z,97469.03
2022-07-26T10:13:34.558Z,97451.53
2022-07-26T10:16:04.660Z,97457.63
2022-07-26T10:18:47.348Z,97455.25
2022-07-26T10:21:23.318Z,97458.38
2022-07-26T10:23:53.040Z,97461.13
2022-07-26T10:26:43.335Z,97452.50
2022-07-26T10:29:28.777Z,97459.38
2022-07-26T10:32:20.285Z,97450.19
2022-07-26T10:34:49.128Z,97447.50
2022-07-26T10:37:30.550Z,97440.25
2022-07-26T10:40:22.540Z,97449.06
2022-07-26T10:42:50.935Z,97439.06
2022-07-26T10:45:23.655Z,97437.81
2022-07-26T10:48:13.893Z,97446.91
2022-07-26T10:50:43.708Z,97441.56
2022-07-26T10:53:20.287Z,97438.94
2022-07-26T10:55:51.233Z,97429.25
2022-07-26T10:58:21.039Z,97434.25
2022-07-26T11:01:00.915Z,97434.31
2022-07-26T11:03:40.235Z,97429.44
2022-07-26T11:06:14.583Z,97426.53
2022-07-26T11:08:47.948Z,97426.56
2022-07-26T11:11:30.485Z,97433.38
2022-07-26T11:14:11.678Z,97428.53
2022-07-26T11:16:42.221Z,97422.50
2022-07-26T11:19:20.980Z,97419.78
2022-07-26T11:21:55.972Z,97416.47
2022-07-26T11:24:24.297Z,97421.66
2022-07-26T11:26:52.679Z,97419.72
2022-07-26T11:29:37.366Z,97407.63
2022-07-26T11:32:18.607Z,97410.34
2022-07-26T11:34:48.767Z,97407.59
2022-07-26T11:37:17.383Z,97408.41
2022-07-26T11:39:45.645Z,97400.50
2022-07-26T11:42:16.265Z,97405.13
2022-07-26T11:44:46.408Z,97404.56
2022-07-26T11:47:16.759Z,97405.91
2022-07-26T11:49:52.845Z,97401.00
2022-07-26T11:52:35.971Z,97393.59
2022-07-26T11:55:04.624Z,97389.50
2022-07-26T11:57:33.450Z,97387.00
2022-07-26T12:00:02.246Z,97384.47
2022-07-26T12:02:31.437Z,97399.78
2022-07-26T12:05:16.356Z,97389.09
2022-07-26T12:08:07.250Z,97377.59
2022-07-26T12:10:35.779Z,97383.63
2022-07-26T12:13:16.387Z,97380.31
2022-07-26T12:15:50.046Z,97381.63
2022-07-26T12:18:26.648Z,97376.09
2022-07-26T12:21:06.609Z,97385.09
2022-07-26T12:23:45.673Z,97376.88
2022-07-26T12:26:24.623Z,97371.13
2022-07-26T12:28:53.433Z,97372.78
2022-07-26T12:31:29.836Z,97381.56
2022-07-26T12:33:58.580Z,97364.88
2022-07-26T12:36:30.081Z,97373.91
2022-07-26T12:39:01.184Z,97361.28
2022-07-26T12:41:35.004Z,97372.78
2022-07-26T12:44:03.760Z,97366.44
2022-07-26T12:46:34.357Z,97365.28
2022-07-26T12:49:03.089Z,97367.13
2022-07-26T12:51:31.699Z,97356.13
2022-07-26T12:54:01.507Z,97360.97
2022-07-26T12:56:29.777Z,97355.75
2022-07-26T12:59:01.379Z,97359.56
2022-07-26T13:01:31.193Z,97354.06
2022-07-26T13:03:59.696Z,97348.75
2022-07-26T13:06:28.097Z,97354.69
2022-07-26T13:08:56.591Z,97352.75
2022-07-26T13:11:26.577Z,97354.31
2022-07-26T13:13:55.779Z,97349.59
2022-07-26T13:16:24.140Z,97346.28
2022-07-26T13:18:52.555Z,97349.56
2022-07-26T13:21:20.923Z,97347.41
2022-07-26T13:23:49.303Z,97343.13
2022-07-26T13:26:17.636Z,97347.13
2022-07-26T13:28:49.754Z,97344.72
2022-07-26T13:31:19.295Z,97345.28
2022-07-26T13:33:48.132Z,97340.06
2022-07-26T13:36:16.407Z,97342.97
2022-07-26T13:38:44.728Z,97336.88
2022-07-26T13:41:13.114Z,97338.69
2022-07-26T13:43:41.505Z,97342.19
2022-07-26T13:46:11.314Z,97342.94
2022-07-26T13:48:59.655Z,97337.97
2022-07-26T13:51:44.254Z,97333.53
2022-07-26T13:54:13.949Z,97334.00
2022-07-26T13:56:42.896Z,97339.09
2022-07-26T13:59:11.923Z,97329.31
2022-07-26T14:01:44.565Z,97338.38
2022-07-26T14:04:14.591Z,97336.75
2022-07-26T14:06:43.956Z,97330.97
2022-07-26T14:09:13.615Z,97344.88
2022-07-26T14:11:42.364Z,97341.09
2022-07-26T14:14:11.123Z,97342.94
2022-07-26T14:16:41.103Z,97350.94
2022-07-26T14:19:09.977Z,97347.97
2022-07-26T14:21:48.900Z,97347.44
2022-07-26T14:24:27.459Z,97347.97
2022-07-26T14:26:59.262Z,97343.53
2022-07-26T14:29:28.757Z,97338.06
2022-07-26T14:31:58.638Z,97337.19
2022-07-26T14:34:27.102Z,97330.44
2022-07-26T14:36:55.455Z,97324.75
2022-07-26T14:39:23.870Z,97330.56
2022-07-26T14:41:52.280Z,97323.50
2022-07-26T14:44:20.755Z,97331.19
2022-07-26T14:46:49.106Z,97333.94
2022-07-26T14:49:19.035Z,97320.75
2022-07-26T14:51:48.140Z,97330.56
2022-07-26T14:54:17.954Z,97330.53
2022-07-26T14:56:46.313Z,97322.31
2022-07-26T14:59:14.659Z,97323.06
2022-07-26T15:01:43.185Z,97322.19
2022-07-26T15:04:12.174Z,97319.97
2022-07-26T15:06:42.142Z,97323.28
2022-07-26T15:09:10.419Z,97319.16
2022-07-26T15:11:38.781Z,97324.03
2022-07-26T15:14:19.108Z,97310.88
2022-07-26T15:16:47.696Z,97314.69
2022-07-26T15:19:16.062Z,97314.94
2022-07-26T15:21:45.742Z,97310.19
2022-07-26T15:24:14.440Z,97312.06
2022-07-26T15:26:43.108Z,97311.19
2022-07-26T15:29:15.296Z,97303.75
2022-07-26T15:31:47.327Z,97308.44
2022-07-26T15:34:16.362Z,97306.19
2022-07-26T15:36:46.075Z,97308.94
2022-07-26T15:39:17.109Z,97313.53
2022-07-26T15:41:47.602Z,97316.00
2022-07-26T15:44:18.294Z,97313.78
2022-07-26T15:46:48.633Z,97310.75
2022-07-26T15:49:18.751Z,97309.84
2022-07-26T15:51:49.823Z,97307.69
2022-07-26T15:54:20.422Z,97310.97
2022-07-26T15:56:48.823Z,97312.91
2022-07-26T15:59:17.135Z,97317.84
2022-07-26T16:01:45.561Z,97319.25
2022-07-26T16:04:14.421Z,97318.22
2022-07-26T16:06:43.165Z,97315.25
2022-07-26T16:09:17.250Z,97307.59
2022-07-26T16:11:47.280Z,97299.97
2022-07-26T16:14:16.313Z,97301.66
2022-07-26T16:16:45.118Z,97302.00
2022-07-26T16:19:14.209Z,97307.00
2022-07-26T16:21:42.782Z,97310.03
2022-07-26T16:24:12.601Z,97302.16
2022-07-26T16:26:42.372Z,97306.31
2022-07-26T16:29:11.376Z,97306.34
2022-07-26T16:31:41.543Z,97316.28
2022-07-26T16:34:10.414Z,97299.28
2022-07-26T16:36:39.379Z,97301.28
2022-07-26T16:39:08.108Z,97315.28
2022-07-26T16:41:38.778Z,97312.84
2022-07-26T16:44:07.339Z,97308.22
2022-07-26T16:46:35.780Z,97308.81
2022-07-26T16:49:04.685Z,97313.78
2022-07-26T16:51:33.412Z,97314.63
2022-07-26T16:54:01.847Z,97318.22
2022-07-26T16:56:30.225Z,97321.81
2022-07-26T16:59:00.216Z,97317.78
2022-07-26T17:01:28.660Z,97313.75
2022-07-26T17:03:57.034Z,97315.47
2022-07-26T17:06:25.371Z,97318.00
2022-07-26T17:08:53.723Z,97315.88
2022-07-26T17:11:22.074Z,97315.94
2022-07-26T17:13:50.695Z,97315.97
2022-07-26T17:16:24.373Z,97314.44
2022-07-26T17:18:53.628Z,97323.50
2022-07-26T17:21:22.381Z,97323.59
2022-07-26T17:23:51.313Z,97323.34
2022-07-26T17:26:20.508Z,97318.72
2022-07-26T17:28:48.927Z,97322.34
2022-07-26T17:31:17.437Z,97321.28
2022-07-26T17:33:47.150Z,97323.22
2022-07-26T17:36:26.650Z,97322.16
2022-07-26T17:38:55.495Z,97325.16
2022-07-26T17:41:32.363Z,97321.38
2022-07-26T17:44:03.362Z,97328.22
2022-07-26T17:46:33.391Z,97330.16
2022-07-26T17:49:03.420Z,97325.25
2022-07-26T17:51:31.881Z,97334.53
2022-07-26T17:54:00.562Z,97334.53
2022-07-26T17:56:29.018Z,97331.00
2022-07-26T17:58:57.990Z,97338.66
2022-07-26T18:01:26.592Z,97337.31
2022-07-26T18:03:55.392Z,97332.09
2022-07-26T18:06:25.176Z,97338.66
2022-07-26T18:08:53.556Z,97338.38
2022-07-26T18:11:22.169Z,97338.38
2022-07-26T18:13:50.535Z,97335.06
2022-07-26T18:16:19.088Z,97339.97
2022-07-26T18:18:47.520Z,97349.25
2022-07-26T18:21:15.973Z,97347.88
2022-07-26T18:24:00.590Z,97351.94
2022-07-26T18:26:34.404Z,97347.28
2022-07-26T18:29:02.904Z,97353.78
2022-07-26T18:31:31.454Z,97352.38
2022-07-26T18:34:03.057Z,97353.44
2022-07-26T18:36:34.788Z,97361.31
2022-07-26T18:39:05.326Z,97358.03
2022-07-26T18:41:34.399Z,97357.72
2022-07-26T18:44:02.931Z,97357.97
2022-07-26T18:46:31.439Z,97358.47
2022-07-26T18:49:02.518Z,97364.44
2022-07-26T18:51:31.060Z,97368.72
2022-07-26T18:54:00.190Z,97370.28
2022-07-26T18:56:30.063Z,97378.09
2022-07-26T18:58:58.441Z,97393.28
2022-07-26T19:01:26.825Z,97392.97
2022-07-26T19:03:55.304Z,97389.91
2022-07-26T19:06:23.767Z,97395.53
2022-07-26T19:08:52.402Z,97395.19
2022-07-26T19:11:20.772Z,97401.91
2022-07-26T19:13:50.562Z,97398.03
2022-07-26T19:16:19.255Z,97401.50
2022-07-26T19:18:50.833Z,97395.22
2022-07-26T19:21:20.696Z,97404.66
2022-07-26T19:23:49.129Z,97401.59
2022-07-26T19:26:17.671Z,97402.56
2022-07-26T19:28:46.334Z,97403.34
2022-07-26T19:31:16.418Z,97412.50
2022-07-26T19:33:45.138Z,97404.03
2022-07-26T19:36:13.505Z,97412.94
2022-07-26T19:38:47.306Z,97408.78
2022-07-26T19:41:16.143Z,97406.03
2022-07-26T19:43:44.531Z,97407.84
2022-07-26T19:46:12.905Z,97409.44
2022-07-26T19:48:42.776Z,97412.06
2022-07-26T19:51:11.162Z,97408.22
2022-07-26T19:53:39.501Z,97408.94
2022-07-26T19:56:08.442Z,97414.31
2022-07-26T19:58:36.724Z,97409.91
2022-07-26T20:01:05.407Z,97414.16
2022-07-26T20:03:34.075Z,97405.13
2022-07-26T20:06:03.749Z,97405.06
2022-07-26T20:08:32.012Z,97421.06
2022-07-26T20:11:00.338Z,97416.38
2022-07-26T20:13:28.658Z,97417.38
2022-07-26T20:15:56.999Z,97420.81
2022-07-26T20:18:27.180Z,97420.75
2022-07-26T20:20:56.260Z,97430.72
2022-07-26T20:23:27.917Z,97428.72
2022-07-26T20:25:56.442Z,97426.72
2022-07-26T20:28:24.767Z,97428.31
2022-07-26T20:30:54.911Z,97434.47
2022-07-26T20:33:25.274Z,97437.69
2022-07-26T20:35:55.205Z,97424.84
2022-07-26T20:38:25.263Z,97431.00
2022-07-26T20:40:54.034Z,97421.44
2022-07-26T20:43:22.503Z,97426.56
2022-07-26T20:45:51.534Z,97430.81
2022-07-26T20:48:20.256Z,97428.28
2022-07-26T20:50:48.871Z,97429.84
2022-07-26T20:53:17.335Z,97424.91
2022-07-26T20:55:47.056Z,97426.44
2022-07-26T20:58:17.595Z,97423.66
2022-07-26T21:00:45.936Z,97420.81
2022-07-26T21:03:16.754Z,97428.84
2022-07-26T21:05:45.072Z,97432.28
2022-07-26T21:08:13.781Z,97429.75
2022-07-26T21:10:42.147Z,97437.78
2022-07-26T21:13:11.800Z,97435.19
2022-07-26T21:15:42.126Z,97438.91
2022-07-26T21:18:10.572Z,97441.75
2022-07-26T21:20:40.707Z,97446.25
2022-07-26T21:23:17.318Z,97448.84
2022-07-26T21:25:46.315Z,97442.75
2022-07-26T21:28:16.150Z,97449.66
2022-07-26T21:30:44.503Z,97443.31
2022-07-26T21:33:12.906Z,97438.00
2022-07-26T21:35:42.098Z,97444.41
2022-07-26T21:38:10.669Z,97436.16
2022-07-26T21:40:39.356Z,97455.25
2022-07-26T21:43:08.011Z,97457.00
2022-07-26T21:45:37.828Z,97451.16
2022-07-26T21:48:06.826Z,97458.53
2022-07-26T21:50:35.167Z,97459.47
2022-07-26T21:53:03.519Z,97463.13
2022-07-26T21:55:31.815Z,97458.66
2022-07-26T21:58:00.105Z,97461.22
2022-07-26T22:00:28.551Z,97464.88
2022-07-26T22:02:58.183Z,97457.91
2022-07-26T22:05:43.167Z,97457.78
2022-07-26T22:08:13.871Z,97453.53
2022-07-26T22:10:46.342Z,97452.81
2022-07-26T22:13:15.446Z,97451.41
2022-07-26T22:15:44.431Z,97466.94
2022-07-26T22:18:14.852Z,97454.09
2022-07-26T22:20:47.397Z,97457.47
2022-07-26T22:23:15.854Z,97457.09
2022-07-26T22:25:44.207Z,97456.94
2022-07-26T22:28:17.958Z,97462.22
2022-07-26T22:30:47.195Z,97455.28
2022-07-26T22:33:17.129Z,97462.16
2022-07-26T22:35:45.498Z,97464.97
2022-07-26T22:38:13.857Z,97465.66
2022-07-26T22:40:43.646Z,97471.75
2022-07-26T22:43:13.174Z,97462.91
2022-07-26T22:45:42.099Z,97464.41
2022-07-26T22:48:10.494Z,97472.38
2022-07-26T22:50:40.370Z,97469.31
2022-07-26T22:53:08.774Z,97466.19
2022-07-26T22:55:37.599Z,97459.59
2022-07-26T22:58:05.932Z,97465.44
2022-07-26T23:00:34.364Z,97460.50
2022-07-26T23:03:02.752Z,97456.38
2022-07-26T23:05:45.919Z,97459.31
2022-07-26T23:11:06.575Z,97458.19
2022-07-26T23:13:35.011Z,97454.06
2022-07-26T23:16:03.442Z,97454.50
2022-07-26T23:18:32.943Z,97452.84
2022-07-26T23:21:03.846Z,97441.47
2022-07-26T23:23:33.902Z,97441.06
2022-07-26T23:26:02.626Z,97436.13
2022-07-26T23:28:37.548Z,97438.44
2022-07-26T23:31:11.729Z,97434.78
2022-07-26T23:33:52.971Z,97434.59
2022-07-26T23:36:24.882Z,97441.50
2022-07-26T23:38:55.558Z,97438.69
2022-07-26T23:41:24.214Z,97429.34
2022-07-26T23:43:52.843Z,97442.47
2022-07-26T23:46:21.491Z,97438.75
2022-07-26T23:48:50.824Z,97441.09
2022-07-26T23:51:20.044Z,97443.41
2022-07-26T23:53:48.846Z,97451.09
2022-07-26T23:56:19.678Z,97450.72
2022-07-26T23:58:48.146Z,97455.97
